createdAt,value
2018-09-18T00:01:25.950Z,21.2
2018-09-18T00:11:27.849Z,21.7
2018-09-18T00:21:25.791Z,20.3
2018-09-18T00:31:25.719Z,27.0
2018-09-18T00:41:26.705Z,22.0
2018-09-18T00:51:25.693Z,24.1
2018-09-18T01:01:25.687Z,22.2
2018-09-18T01:11:26.671Z,23.7
2018-09-18T01:21:28.674Z,20.5
2018-09-18T01:31:29.954Z,29.3
2018-09-18T01:41:27.266Z,22.3
2018-09-18T01:51:27.581Z,28.3
2018-09-18T02:01:25.889Z,25.4
2018-09-18T02:11:26.629Z,24.2
2018-09-18T02:21:26.602Z,22.5
2018-09-18T02:31:26.423Z,23.6
2018-09-18T02:41:28.060Z,25.0
2018-09-18T02:51:28.442Z,22.5
2018-09-18T03:01:26.699Z,27.6
2018-09-18T03:11:26.849Z,27.7
2018-09-18T03:21:26.667Z,20.4
2018-09-18T03:31:30.984Z,23.9
2018-09-18T03:41:27.306Z,23.9
2018-09-18T03:51:28.319Z,23.1
2018-09-18T04:01:26.207Z,26.9
2018-09-18T04:11:27.105Z,23.0
2018-09-18T04:21:26.153Z,26.3
2018-09-18T04:31:27.332Z,21.3
2018-09-18T04:41:27.334Z,26.1
2018-09-18T04:51:28.771Z,26.3
2018-09-18T05:01:27.255Z,24.5
2018-09-18T05:11:26.410Z,21.1
2018-09-18T05:21:26.509Z,24.5
2018-09-18T05:31:27.349Z,25.7
2018-09-18T05:41:27.644Z,21.0
2018-09-18T05:51:27.741Z,24.6
2018-09-18T06:01:26.237Z,27.0
2018-09-18T06:11:27.281Z,27.4
2018-09-18T06:21:28.763Z,25.2
2018-09-18T06:31:28.757Z,31.4
2018-09-18T06:41:26.656Z,24.2
2018-09-18T06:51:27.269Z,25.8
2018-09-18T07:01:26.113Z,24.5
2018-09-18T07:11:27.511Z,25.9
2018-09-18T07:21:26.119Z,30.3
2018-09-18T07:31:26.025Z,24.1
2018-09-18T07:41:26.587Z,35.7
2018-09-18T07:51:26.412Z,22.3
2018-09-18T08:01:31.768Z,31.3
2018-09-18T08:11:25.844Z,21.6
2018-09-18T08:21:26.746Z,21.1
2018-09-18T08:31:25.701Z,19.2
2018-09-18T08:41:27.746Z,17.1
2018-09-18T08:51:26.326Z,14.8
2018-09-18T09:01:26.340Z,16.8
2018-09-18T09:11:26.575Z,14.7
2018-09-18T09:21:26.979Z,15.3
2018-09-18T09:31:26.995Z,10.6
2018-09-18T09:41:26.796Z,13.8
2018-09-18T09:51:27.306Z,9.6
2018-09-18T10:01:25.671Z,13.0
2018-09-18T10:11:25.945Z,11.0
2018-09-18T10:21:26.131Z,7.8
2018-09-18T10:31:27.429Z,8.3
2018-09-18T10:41:28.239Z,7.0
2018-09-18T10:51:26.177Z,9.0
2018-09-18T11:01:26.116Z,8.0
2018-09-18T11:11:26.408Z,8.0
2018-09-18T11:21:26.059Z,8.5
2018-09-18T11:31:27.146Z,8.4
2018-09-18T11:41:26.489Z,6.6
2018-09-18T11:51:26.845Z,8.8
2018-09-18T12:01:28.524Z,12.3
2018-09-18T12:11:26.859Z,8.3
2018-09-18T12:21:26.556Z,9.5
2018-09-18T12:31:26.506Z,9.0
2018-09-18T12:41:26.900Z,7.2
2018-09-18T12:51:27.052Z,7.2
2018-09-18T13:01:26.292Z,6.8
2018-09-18T13:11:26.714Z,7.4
2018-09-18T13:21:26.930Z,9.4
2018-09-18T13:31:25.869Z,6.0
2018-09-18T13:41:26.572Z,4.9
2018-09-18T13:51:26.396Z,7.5
2018-09-18T14:01:26.912Z,5.6
2018-09-18T14:11:26.312Z,6.7
2018-09-18T14:21:25.706Z,5.3
2018-09-18T14:31:26.811Z,4.8
2018-09-18T14:41:26.072Z,8.6
2018-09-18T14:51:26.382Z,6.8
2018-09-18T15:01:27.839Z,6.1
2018-09-18T15:11:26.646Z,7.1
2018-09-18T15:21:26.525Z,8.0
2018-09-18T15:31:26.573Z,11.1
2018-09-18T15:41:26.509Z,7.4
2018-09-18T15:51:27.689Z,7.9
2018-09-18T16:01:26.119Z,12.7
2018-09-18T16:11:26.901Z,14.5
2018-09-18T16:21:26.854Z,19.6
2018-09-18T16:31:25.934Z,17.3
2018-09-18T16:41:27.983Z,23.8
2018-09-18T16:51:26.271Z,21.4
2018-09-18T17:01:27.085Z,23.4
2018-09-18T17:11:26.316Z,20.8
2018-09-18T17:21:25.666Z,18.3
2018-09-18T17:31:25.935Z,19.1
2018-09-18T17:41:27.576Z,18.4
2018-09-18T17:51:25.767Z,19.2
2018-09-18T18:01:26.476Z,20.9
2018-09-18T18:11:29.137Z,21.2
2018-09-18T18:21:27.824Z,19.5
2018-09-18T18:31:25.868Z,26.3
2018-09-18T18:41:27.497Z,22.7
2018-09-18T18:51:26.109Z,27.5
2018-09-18T19:01:28.996Z,24.3
2018-09-18T19:11:27.424Z,29.4
2018-09-18T19:21:26.897Z,37.4
2018-09-18T19:31:25.974Z,32.6
2018-09-18T19:41:27.070Z,29.9
2018-09-18T19:51:26.658Z,34.1
2018-09-18T20:01:26.359Z,30.5
2018-09-18T20:11:28.268Z,40.4
2018-09-18T20:21:27.102Z,30.0
2018-09-18T20:31:26.329Z,41.9
2018-09-18T20:41:27.711Z,35.6
2018-09-18T20:51:25.773Z,41.1
2018-09-18T21:01:26.568Z,36.7
2018-09-18T21:11:26.520Z,36.6
2018-09-18T21:21:27.663Z,36.0
2018-09-18T21:31:26.120Z,34.1
2018-09-18T21:41:26.524Z,35.9
2018-09-18T21:51:26.367Z,37.2
2018-09-18T22:01:29.187Z,37.0
2018-09-18T22:11:29.292Z,41.2
2018-09-18T22:21:26.539Z,37.8
2018-09-18T22:31:25.497Z,31.7
2018-09-18T22:41:27.540Z,31.2
2018-09-18T22:51:27.160Z,31.4
2018-09-18T23:01:27.503Z,35.0
2018-09-18T23:11:27.222Z,32.1
2018-09-18T23:21:27.496Z,31.9
2018-09-18T23:31:25.719Z,34.3
2018-09-18T23:41:27.428Z,29.7
2018-09-18T23:51:28.414Z,30.1
